sensor_id;sensor_type;location;lat;lon;timestamp;P1;durP1;ratioP1;P2;durP2;ratioP2
18172;SDS011;9211;48.818;9.312;2023-02-28T00:01:29;4.70;;;2.40;;
18172;SDS011;9211;48.818;9.312;2023-02-28T00:03:56;6.53;;;2.58;;
18172;SDS011;9211;48.818;9.312;2023-02-28T00:06:24;4.22;;;2.50;;
18172;SDS011;9211;48.818;9.312;2023-02-28T00:08:51;9.13;;;2.80;;
18172;SDS011;9211;48.818;9.312;2023-02-28T00:11:18;4.97;;;2.45;;
18172;SDS011;9211;48.818;9.312;2023-02-28T00:13:45;5.43;;;2.80;;
18172;SDS011;9211;48.818;9.312;2023-02-28T00:16:15;6.00;;;2.60;;
18172;SDS011;9211;48.818;9.312;2023-02-28T00:18:43;7.28;;;2.60;;
18172;SDS011;9211;48.818;9.312;2023-02-28T00:21:12;5.38;;;2.38;;
18172;SDS011;9211;48.818;9.312;2023-02-28T00:23:40;5.75;;;2.60;;
18172;SDS011;9211;48.818;9.312;2023-02-28T00:26:07;6.40;;;2.58;;
18172;SDS011;9211;48.818;9.312;2023-02-28T00:28:36;4.80;;;2.72;;
18172;SDS011;9211;48.818;9.312;2023-02-28T00:31:03;5.72;;;2.50;;
18172;SDS011;9211;48.818;9.312;2023-02-28T00:33:31;4.47;;;2.35;;
18172;SDS011;9211;48.818;9.312;2023-02-28T00:36:02;5.97;;;2.60;;
18172;SDS011;9211;48.818;9.312;2023-02-28T00:38:30;6.13;;;2.92;;
18172;SDS011;9211;48.818;9.312;2023-02-28T00:40:59;5.80;;;2.75;;
18172;SDS011;9211;48.818;9.312;2023-02-28T00:43:30;5.75;;;2.80;;
18172;SDS011;9211;48.818;9.312;2023-02-28T00:45:58;5.93;;;2.80;;
18172;SDS011;9211;48.818;9.312;2023-02-28T00:48:25;5.80;;;2.90;;
18172;SDS011;9211;48.818;9.312;2023-02-28T00:50:53;5.57;;;2.75;;
18172;SDS011;9211;48.818;9.312;2023-02-28T00:53:20;5.93;;;2.90;;
18172;SDS011;9211;48.818;9.312;2023-02-28T00:55:48;5.88;;;2.90;;
18172;SDS011;9211;48.818;9.312;2023-02-28T00:58:15;5.03;;;2.63;;
18172;SDS011;9211;48.818;9.312;2023-02-28T01:00:42;5.03;;;2.88;;
18172;SDS011;9211;48.818;9.312;2023-02-28T01:03:14;4.75;;;2.70;;
18172;SDS011;9211;48.818;9.312;2023-02-28T01:05:42;5.53;;;2.93;;
18172;SDS011;9211;48.818;9.312;2023-02-28T01:08:10;6.97;;;2.90;;
18172;SDS011;9211;48.818;9.312;2023-02-28T01:10:37;5.80;;;3.10;;
18172;SDS011;9211;48.818;9.312;2023-02-28T01:13:05;6.35;;;3.00;;
18172;SDS011;9211;48.818;9.312;2023-02-28T01:15:35;5.13;;;3.08;;
18172;SDS011;9211;48.818;9.312;2023-02-28T01:18:04;6.47;;;3.25;;
18172;SDS011;9211;48.818;9.312;2023-02-28T01:20:31;7.60;;;3.08;;
18172;SDS011;9211;48.818;9.312;2023-02-28T01:22:58;5.10;;;2.93;;
18172;SDS011;9211;48.818;9.312;2023-02-28T01:25:27;6.50;;;3.15;;
18172;SDS011;9211;48.818;9.312;2023-02-28T01:27:54;6.18;;;3.40;;
18172;SDS011;9211;48.818;9.312;2023-02-28T01:30:21;6.57;;;3.28;;
18172;SDS011;9211;48.818;9.312;2023-02-28T01:32:48;6.13;;;3.22;;
18172;SDS011;9211;48.818;9.312;2023-02-28T01:35:18;6.03;;;3.35;;
18172;SDS011;9211;48.818;9.312;2023-02-28T01:37:45;5.20;;;3.17;;
18172;SDS011;9211;48.818;9.312;2023-02-28T01:40:13;5.63;;;2.90;;
18172;SDS011;9211;48.818;9.312;2023-02-28T01:42:42;6.15;;;3.00;;
18172;SDS011;9211;48.818;9.312;2023-02-28T01:47:55;6.45;;;3.28;;
18172;SDS011;9211;48.818;9.312;2023-02-28T01:50:26;6.93;;;3.35;;
18172;SDS011;9211;48.818;9.312;2023-02-28T01:52:58;5.55;;;2.92;;
18172;SDS011;9211;48.818;9.312;2023-02-28T01:55:30;6.55;;;3.50;;
18172;SDS011;9211;48.818;9.312;2023-02-28T01:58:01;7.07;;;3.30;;
18172;SDS011;9211;48.818;9.312;2023-02-28T02:00:30;6.35;;;3.35;;
18172;SDS011;9211;48.818;9.312;2023-02-28T02:02:59;6.95;;;3.35;;
18172;SDS011;9211;48.818;9.312;2023-02-28T02:05:31;6.63;;;3.40;;
18172;SDS011;9211;48.818;9.312;2023-02-28T02:08:01;5.90;;;3.30;;
18172;SDS011;9211;48.818;9.312;2023-02-28T02:10:31;8.50;;;3.50;;
18172;SDS011;9211;48.818;9.312;2023-02-28T02:13:08;6.43;;;3.60;;
18172;SDS011;9211;48.818;9.312;2023-02-28T02:15:48;5.88;;;3.50;;
18172;SDS011;9211;48.818;9.312;2023-02-28T02:18:29;6.65;;;3.70;;
18172;SDS011;9211;48.818;9.312;2023-02-28T02:27:23;8.83;;;4.13;;
18172;SDS011;9211;48.818;9.312;2023-02-28T02:30:09;6.85;;;3.60;;
18172;SDS011;9211;48.818;9.312;2023-02-28T02:32:54;6.20;;;3.78;;
18172;SDS011;9211;48.818;9.312;2023-02-28T02:35:36;8.18;;;3.70;;
18172;SDS011;9211;48.818;9.312;2023-02-28T02:38:10;7.50;;;3.70;;
18172;SDS011;9211;48.818;9.312;2023-02-28T02:40:46;6.65;;;3.70;;
18172;SDS011;9211;48.818;9.312;2023-02-28T02:43:21;6.13;;;3.80;;
18172;SDS011;9211;48.818;9.312;2023-02-28T02:45:55;5.75;;;3.80;;
18172;SDS011;9211;48.818;9.312;2023-02-28T02:48:26;7.43;;;3.80;;
18172;SDS011;9211;48.818;9.312;2023-02-28T02:50:58;8.10;;;4.22;;
18172;SDS011;9211;48.818;9.312;2023-02-28T02:53:28;6.85;;;4.13;;
18172;SDS011;9211;48.818;9.312;2023-02-28T02:56:00;7.87;;;4.30;;
18172;SDS011;9211;48.818;9.312;2023-02-28T02:58:31;6.23;;;4.00;;
18172;SDS011;9211;48.818;9.312;2023-02-28T03:03:35;6.93;;;3.85;;
18172;SDS011;9211;48.818;9.312;2023-02-28T03:06:04;7.63;;;4.35;;
18172;SDS011;9211;48.818;9.312;2023-02-28T03:08:33;7.65;;;3.95;;
18172;SDS011;9211;48.818;9.312;2023-02-28T03:11:02;8.38;;;4.45;;
18172;SDS011;9211;48.818;9.312;2023-02-28T03:13:39;6.82;;;4.28;;
18172;SDS011;9211;48.818;9.312;2023-02-28T03:16:23;8.68;;;4.43;;
18172;SDS011;9211;48.818;9.312;2023-02-28T03:19:03;8.73;;;4.50;;
18172;SDS011;9211;48.818;9.312;2023-02-28T03:21:46;8.27;;;4.40;;
18172;SDS011;9211;48.818;9.312;2023-02-28T03:24:23;7.53;;;4.20;;
18172;SDS011;9211;48.818;9.312;2023-02-28T03:26:58;7.67;;;4.53;;
18172;SDS011;9211;48.818;9.312;2023-02-28T03:29:33;7.85;;;4.22;;
18172;SDS011;9211;48.818;9.312;2023-02-28T03:32:04;7.90;;;4.63;;
18172;SDS011;9211;48.818;9.312;2023-02-28T03:34:39;9.85;;;4.80;;
18172;SDS011;9211;48.818;9.312;2023-02-28T03:37:15;7.32;;;4.38;;
18172;SDS011;9211;48.818;9.312;2023-02-28T03:39:49;6.65;;;4.32;;
18172;SDS011;9211;48.818;9.312;2023-02-28T03:42:22;7.10;;;4.10;;
18172;SDS011;9211;48.818;9.312;2023-02-28T03:44:53;7.15;;;4.50;;
18172;SDS011;9211;48.818;9.312;2023-02-28T03:47:24;7.30;;;4.45;;
18172;SDS011;9211;48.818;9.312;2023-02-28T03:49:54;8.57;;;4.75;;
18172;SDS011;9211;48.818;9.312;2023-02-28T03:52:26;7.72;;;4.30;;
18172;SDS011;9211;48.818;9.312;2023-02-28T03:54:59;9.65;;;5.00;;
18172;SDS011;9211;48.818;9.312;2023-02-28T03:57:33;8.98;;;4.93;;
18172;SDS011;9211;48.818;9.312;2023-02-28T04:00:05;9.02;;;4.50;;
18172;SDS011;9211;48.818;9.312;2023-02-28T04:02:38;7.10;;;4.65;;
18172;SDS011;9211;48.818;9.312;2023-02-28T04:05:05;8.13;;;4.70;;
18172;SDS011;9211;48.818;9.312;2023-02-28T04:07:34;7.30;;;4.77;;
18172;SDS011;9211;48.818;9.312;2023-02-28T04:10:03;8.18;;;4.90;;
18172;SDS011;9211;48.818;9.312;2023-02-28T04:12:31;10.38;;;4.50;;
18172;SDS011;9211;48.818;9.312;2023-02-28T04:14:58;8.93;;;4.75;;
18172;SDS011;9211;48.818;9.312;2023-02-28T04:17:24;8.85;;;5.10;;
18172;SDS011;9211;48.818;9.312;2023-02-28T04:19:52;9.98;;;5.65;;
18172;SDS011;9211;48.818;9.312;2023-02-28T04:22:22;8.38;;;5.00;;
18172;SDS011;9211;48.818;9.312;2023-02-28T04:24:52;9.02;;;5.35;;
18172;SDS011;9211;48.818;9.312;2023-02-28T04:27:19;8.50;;;5.20;;
18172;SDS011;9211;48.818;9.312;2023-02-28T04:29:46;8.20;;;4.97;;
18172;SDS011;9211;48.818;9.312;2023-02-28T04:32:13;7.90;;;4.67;;
18172;SDS011;9211;48.818;9.312;2023-02-28T04:34:40;8.95;;;4.78;;
18172;SDS011;9211;48.818;9.312;2023-02-28T04:37:07;9.07;;;4.70;;
18172;SDS011;9211;48.818;9.312;2023-02-28T04:39:34;8.90;;;5.07;;
18172;SDS011;9211;48.818;9.312;2023-02-28T04:42:03;8.88;;;4.90;;
18172;SDS011;9211;48.818;9.312;2023-02-28T04:44:30;9.38;;;4.97;;
18172;SDS011;9211;48.818;9.312;2023-02-28T04:46:57;8.65;;;4.78;;
18172;SDS011;9211;48.818;9.312;2023-02-28T04:49:24;10.35;;;5.30;;
18172;SDS011;9211;48.818;9.312;2023-02-28T04:51:51;8.90;;;4.88;;
18172;SDS011;9211;48.818;9.312;2023-02-28T04:54:18;8.95;;;5.20;;
18172;SDS011;9211;48.818;9.312;2023-02-28T04:56:45;9.70;;;5.28;;
18172;SDS011;9211;48.818;9.312;2023-02-28T04:59:16;9.85;;;5.50;;
18172;SDS011;9211;48.818;9.312;2023-02-28T05:01:45;10.38;;;5.20;;
18172;SDS011;9211;48.818;9.312;2023-02-28T05:04:13;10.98;;;5.45;;
18172;SDS011;9211;48.818;9.312;2023-02-28T05:06:40;10.27;;;5.25;;
18172;SDS011;9211;48.818;9.312;2023-02-28T05:09:07;10.43;;;5.32;;
18172;SDS011;9211;48.818;9.312;2023-02-28T05:11:36;9.98;;;5.35;;
18172;SDS011;9211;48.818;9.312;2023-02-28T05:14:05;10.88;;;5.50;;
18172;SDS011;9211;48.818;9.312;2023-02-28T05:16:34;10.75;;;5.35;;
18172;SDS011;9211;48.818;9.312;2023-02-28T05:19:01;9.73;;;5.47;;
18172;SDS011;9211;48.818;9.312;2023-02-28T05:21:29;10.85;;;5.47;;
18172;SDS011;9211;48.818;9.312;2023-02-28T05:23:58;11.25;;;5.30;;
18172;SDS011;9211;48.818;9.312;2023-02-28T05:26:26;9.48;;;5.60;;
18172;SDS011;9211;48.818;9.312;2023-02-28T05:28:54;9.10;;;5.45;;
18172;SDS011;9211;48.818;9.312;2023-02-28T05:31:21;10.10;;;5.88;;
18172;SDS011;9211;48.818;9.312;2023-02-28T05:33:50;11.40;;;6.30;;
18172;SDS011;9211;48.818;9.312;2023-02-28T05:36:17;11.80;;;5.85;;
18172;SDS011;9211;48.818;9.312;2023-02-28T05:38:45;9.77;;;5.78;;
18172;SDS011;9211;48.818;9.312;2023-02-28T05:41:13;12.25;;;6.47;;
18172;SDS011;9211;48.818;9.312;2023-02-28T05:43:41;9.97;;;5.77;;
18172;SDS011;9211;48.818;9.312;2023-02-28T05:46:08;10.60;;;5.90;;
18172;SDS011;9211;48.818;9.312;2023-02-28T05:48:37;10.43;;;5.90;;
18172;SDS011;9211;48.818;9.312;2023-02-28T05:51:07;9.93;;;5.95;;
18172;SDS011;9211;48.818;9.312;2023-02-28T05:53:35;11.60;;;6.03;;
18172;SDS011;9211;48.818;9.312;2023-02-28T05:56:03;12.07;;;6.20;;
18172;SDS011;9211;48.818;9.312;2023-02-28T05:58:30;10.55;;;5.93;;
18172;SDS011;9211;48.818;9.312;2023-02-28T06:00:57;11.33;;;5.87;;
18172;SDS011;9211;48.818;9.312;2023-02-28T06:03:25;11.63;;;6.00;;
18172;SDS011;9211;48.818;9.312;2023-02-28T06:05:52;10.82;;;6.18;;
18172;SDS011;9211;48.818;9.312;2023-02-28T06:08:20;10.10;;;6.13;;
18172;SDS011;9211;48.818;9.312;2023-02-28T06:10:47;11.75;;;6.05;;
18172;SDS011;9211;48.818;9.312;2023-02-28T06:13:14;11.70;;;6.13;;
18172;SDS011;9211;48.818;9.312;2023-02-28T06:15:41;11.75;;;5.97;;
18172;SDS011;9211;48.818;9.312;2023-02-28T06:18:08;10.73;;;6.10;;
18172;SDS011;9211;48.818;9.312;2023-02-28T06:20:35;11.68;;;6.45;;
18172;SDS011;9211;48.818;9.312;2023-02-28T06:23:02;10.20;;;6.03;;
18172;SDS011;9211;48.818;9.312;2023-02-28T06:25:30;10.90;;;6.20;;
18172;SDS011;9211;48.818;9.312;2023-02-28T06:27:57;10.63;;;6.05;;
18172;SDS011;9211;48.818;9.312;2023-02-28T06:30:24;10.77;;;6.40;;
18172;SDS011;9211;48.818;9.312;2023-02-28T06:32:53;12.70;;;6.70;;
18172;SDS011;9211;48.818;9.312;2023-02-28T06:35:21;10.93;;;6.38;;
18172;SDS011;9211;48.818;9.312;2023-02-28T06:37:49;10.40;;;6.63;;
18172;SDS011;9211;48.818;9.312;2023-02-28T06:40:16;12.73;;;6.00;;
18172;SDS011;9211;48.818;9.312;2023-02-28T06:42:44;12.15;;;6.80;;
18172;SDS011;9211;48.818;9.312;2023-02-28T06:45:11;11.73;;;6.70;;
18172;SDS011;9211;48.818;9.312;2023-02-28T06:47:39;12.60;;;7.03;;
18172;SDS011;9211;48.818;9.312;2023-02-28T06:50:07;11.45;;;6.00;;
18172;SDS011;9211;48.818;9.312;2023-02-28T06:52:35;13.82;;;7.00;;
18172;SDS011;9211;48.818;9.312;2023-02-28T06:55:02;11.35;;;6.35;;
18172;SDS011;9211;48.818;9.312;2023-02-28T06:57:30;12.80;;;6.57;;
18172;SDS011;9211;48.818;9.312;2023-02-28T06:59:59;11.45;;;6.75;;
18172;SDS011;9211;48.818;9.312;2023-02-28T07:02:28;12.55;;;6.65;;
18172;SDS011;9211;48.818;9.312;2023-02-28T07:04:55;11.68;;;6.93;;
18172;SDS011;9211;48.818;9.312;2023-02-28T07:07:22;11.53;;;7.00;;
18172;SDS011;9211;48.818;9.312;2023-02-28T07:09:49;11.38;;;6.97;;
18172;SDS011;9211;48.818;9.312;2023-02-28T07:12:15;11.10;;;6.68;;
18172;SDS011;9211;48.818;9.312;2023-02-28T07:14:42;12.80;;;6.90;;
18172;SDS011;9211;48.818;9.312;2023-02-28T07:17:11;12.10;;;6.72;;
18172;SDS011;9211;48.818;9.312;2023-02-28T07:19:38;11.02;;;6.50;;
18172;SDS011;9211;48.818;9.312;2023-02-28T07:22:05;11.55;;;6.57;;
18172;SDS011;9211;48.818;9.312;2023-02-28T07:24:33;12.65;;;7.07;;
18172;SDS011;9211;48.818;9.312;2023-02-28T07:27:00;12.52;;;7.13;;
18172;SDS011;9211;48.818;9.312;2023-02-28T07:29:27;13.70;;;7.20;;
18172;SDS011;9211;48.818;9.312;2023-02-28T07:31:54;13.23;;;7.57;;
18172;SDS011;9211;48.818;9.312;2023-02-28T07:34:22;12.93;;;7.43;;
18172;SDS011;9211;48.818;9.312;2023-02-28T07:36:49;14.47;;;7.67;;
18172;SDS011;9211;48.818;9.312;2023-02-28T07:39:19;14.30;;;8.32;;
18172;SDS011;9211;48.818;9.312;2023-02-28T07:41:46;18.50;;;8.97;;
18172;SDS011;9211;48.818;9.312;2023-02-28T07:44:13;23.42;;;11.02;;
18172;SDS011;9211;48.818;9.312;2023-02-28T07:46:40;14.32;;;8.43;;
18172;SDS011;9211;48.818;9.312;2023-02-28T07:49:07;13.35;;;7.85;;
18172;SDS011;9211;48.818;9.312;2023-02-28T07:51:36;13.30;;;7.55;;
18172;SDS011;9211;48.818;9.312;2023-02-28T07:54:03;12.95;;;7.57;;
18172;SDS011;9211;48.818;9.312;2023-02-28T07:56:30;14.93;;;8.90;;
18172;SDS011;9211;48.818;9.312;2023-02-28T07:58:57;16.15;;;8.43;;
18172;SDS011;9211;48.818;9.312;2023-02-28T08:01:24;15.40;;;8.80;;
18172;SDS011;9211;48.818;9.312;2023-02-28T08:03:51;17.00;;;8.40;;
18172;SDS011;9211;48.818;9.312;2023-02-28T08:06:20;13.20;;;7.90;;
18172;SDS011;9211;48.818;9.312;2023-02-28T08:08:50;24.52;;;8.82;;
18172;SDS011;9211;48.818;9.312;2023-02-28T08:11:17;20.40;;;8.82;;
18172;SDS011;9211;48.818;9.312;2023-02-28T08:13:44;16.25;;;7.95;;
18172;SDS011;9211;48.818;9.312;2023-02-28T08:16:12;12.00;;;7.60;;
18172;SDS011;9211;48.818;9.312;2023-02-28T08:18:42;13.65;;;7.90;;
18172;SDS011;9211;48.818;9.312;2023-02-28T08:21:09;13.60;;;7.50;;
18172;SDS011;9211;48.818;9.312;2023-02-28T08:23:36;15.95;;;8.00;;
18172;SDS011;9211;48.818;9.312;2023-02-28T08:26:05;13.75;;;8.05;;
18172;SDS011;9211;48.818;9.312;2023-02-28T08:28:32;13.90;;;7.93;;
18172;SDS011;9211;48.818;9.312;2023-02-28T08:30:59;14.98;;;7.82;;
18172;SDS011;9211;48.818;9.312;2023-02-28T08:33:26;12.95;;;8.02;;
18172;SDS011;9211;48.818;9.312;2023-02-28T08:35:54;14.07;;;8.07;;
18172;SDS011;9211;48.818;9.312;2023-02-28T08:38:21;14.32;;;8.50;;
18172;SDS011;9211;48.818;9.312;2023-02-28T08:40:49;12.82;;;7.95;;
18172;SDS011;9211;48.818;9.312;2023-02-28T08:43:17;13.35;;;8.50;;
18172;SDS011;9211;48.818;9.312;2023-02-28T08:45:44;14.48;;;8.55;;
18172;SDS011;9211;48.818;9.312;2023-02-28T08:48:11;13.20;;;7.97;;
18172;SDS011;9211;48.818;9.312;2023-02-28T08:50:38;14.73;;;8.05;;
18172;SDS011;9211;48.818;9.312;2023-02-28T08:53:05;13.00;;;7.80;;
18172;SDS011;9211;48.818;9.312;2023-02-28T08:55:59;13.70;;;8.25;;
18172;SDS011;9211;48.818;9.312;2023-02-28T08:58:36;14.50;;;8.50;;
18172;SDS011;9211;48.818;9.312;2023-02-28T09:01:22;13.23;;;8.20;;
18172;SDS011;9211;48.818;9.312;2023-02-28T09:03:52;12.90;;;8.18;;
18172;SDS011;9211;48.818;9.312;2023-02-28T09:06:35;14.05;;;8.50;;
18172;SDS011;9211;48.818;9.312;2023-02-28T09:09:12;13.98;;;7.75;;
18172;SDS011;9211;48.818;9.312;2023-02-28T09:11:49;13.85;;;8.38;;
18172;SDS011;9211;48.818;9.312;2023-02-28T09:14:21;12.73;;;7.85;;
18172;SDS011;9211;48.818;9.312;2023-02-28T09:16:51;14.10;;;8.23;;
18172;SDS011;9211;48.818;9.312;2023-02-28T09:19:47;14.38;;;8.02;;
18172;SDS011;9211;48.818;9.312;2023-02-28T09:22:22;14.70;;;8.00;;
18172;SDS011;9211;48.818;9.312;2023-02-28T09:25:08;13.65;;;8.20;;
18172;SDS011;9211;48.818;9.312;2023-02-28T09:27:51;14.80;;;8.45;;
18172;SDS011;9211;48.818;9.312;2023-02-28T09:30:23;14.07;;;8.18;;
18172;SDS011;9211;48.818;9.312;2023-02-28T09:32:55;14.00;;;8.47;;
18172;SDS011;9211;48.818;9.312;2023-02-28T09:35:28;14.98;;;8.57;;
18172;SDS011;9211;48.818;9.312;2023-02-28T09:38:07;13.43;;;8.35;;
18172;SDS011;9211;48.818;9.312;2023-02-28T09:40:45;15.85;;;8.43;;
18172;SDS011;9211;48.818;9.312;2023-02-28T09:43:20;13.20;;;8.02;;
18172;SDS011;9211;48.818;9.312;2023-02-28T09:46:05;14.38;;;8.65;;
18172;SDS011;9211;48.818;9.312;2023-02-28T09:48:57;12.18;;;8.15;;
18172;SDS011;9211;48.818;9.312;2023-02-28T09:51:40;14.43;;;8.60;;
18172;SDS011;9211;48.818;9.312;2023-02-28T09:54:16;14.13;;;8.50;;
18172;SDS011;9211;48.818;9.312;2023-02-28T09:56:51;14.32;;;8.57;;
18172;SDS011;9211;48.818;9.312;2023-02-28T09:59:40;16.40;;;8.63;;
18172;SDS011;9211;48.818;9.312;2023-02-28T10:06:10;15.77;;;8.87;;
18172;SDS011;9211;48.818;9.312;2023-02-28T10:08:47;13.88;;;8.98;;
18172;SDS011;9211;48.818;9.312;2023-02-28T10:11:24;13.23;;;8.43;;
18172;SDS011;9211;48.818;9.312;2023-02-28T10:14:10;15.15;;;8.88;;
18172;SDS011;9211;48.818;9.312;2023-02-28T10:16:55;15.20;;;8.88;;
18172;SDS011;9211;48.818;9.312;2023-02-28T10:22:35;16.70;;;9.10;;
18172;SDS011;9211;48.818;9.312;2023-02-28T10:28:15;13.20;;;8.65;;
18172;SDS011;9211;48.818;9.312;2023-02-28T10:30:47;14.98;;;8.73;;
18172;SDS011;9211;48.818;9.312;2023-02-28T10:33:34;15.80;;;8.65;;
18172;SDS011;9211;48.818;9.312;2023-02-28T10:36:13;13.73;;;8.95;;
18172;SDS011;9211;48.818;9.312;2023-02-28T10:39:04;12.98;;;8.43;;
18172;SDS011;9211;48.818;9.312;2023-02-28T10:42:16;13.65;;;8.75;;
18172;SDS011;9211;48.818;9.312;2023-02-28T10:45:09;14.32;;;8.57;;
18172;SDS011;9211;48.818;9.312;2023-02-28T10:47:51;14.35;;;8.43;;
18172;SDS011;9211;48.818;9.312;2023-02-28T10:50:42;13.88;;;8.40;;
18172;SDS011;9211;48.818;9.312;2023-02-28T10:53:22;14.63;;;8.90;;
18172;SDS011;9211;48.818;9.312;2023-02-28T10:55:59;14.73;;;8.65;;
18172;SDS011;9211;48.818;9.312;2023-02-28T10:58:42;13.48;;;8.32;;
18172;SDS011;9211;48.818;9.312;2023-02-28T11:01:20;13.52;;;8.60;;
18172;SDS011;9211;48.818;9.312;2023-02-28T11:04:31;16.67;;;9.15;;
18172;SDS011;9211;48.818;9.312;2023-02-28T11:07:04;13.13;;;8.32;;
18172;SDS011;9211;48.818;9.312;2023-02-28T11:09:51;12.38;;;8.50;;
18172;SDS011;9211;48.818;9.312;2023-02-28T11:12:33;15.98;;;9.13;;
18172;SDS011;9211;48.818;9.312;2023-02-28T11:15:21;13.82;;;8.52;;
18172;SDS011;9211;48.818;9.312;2023-02-28T11:17:58;14.07;;;8.75;;
18172;SDS011;9211;48.818;9.312;2023-02-28T11:20:30;15.25;;;9.25;;
18172;SDS011;9211;48.818;9.312;2023-02-28T11:23:03;13.80;;;8.70;;
18172;SDS011;9211;48.818;9.312;2023-02-28T11:25:37;13.73;;;8.93;;
18172;SDS011;9211;48.818;9.312;2023-02-28T11:28:24;14.27;;;9.15;;
18172;SDS011;9211;48.818;9.312;2023-02-28T11:31:15;15.30;;;8.77;;
18172;SDS011;9211;48.818;9.312;2023-02-28T11:33:45;15.00;;;9.20;;
18172;SDS011;9211;48.818;9.312;2023-02-28T11:36:25;13.73;;;8.70;;
18172;SDS011;9211;48.818;9.312;2023-02-28T11:39:07;13.90;;;8.43;;
18172;SDS011;9211;48.818;9.312;2023-02-28T11:41:47;14.18;;;8.73;;
18172;SDS011;9211;48.818;9.312;2023-02-28T11:44:41;12.50;;;8.85;;
18172;SDS011;9211;48.818;9.312;2023-02-28T11:47:31;12.55;;;8.60;;
18172;SDS011;9211;48.818;9.312;2023-02-28T11:50:26;12.32;;;7.97;;
18172;SDS011;9211;48.818;9.312;2023-02-28T11:53:13;12.73;;;8.75;;
18172;SDS011;9211;48.818;9.312;2023-02-28T11:55:57;13.50;;;8.85;;
18172;SDS011;9211;48.818;9.312;2023-02-28T11:58:52;12.98;;;8.52;;
18172;SDS011;9211;48.818;9.312;2023-02-28T12:01:51;13.55;;;8.70;;
18172;SDS011;9211;48.818;9.312;2023-02-28T12:04:52;14.90;;;8.70;;
18172;SDS011;9211;48.818;9.312;2023-02-28T12:07:41;14.07;;;8.70;;
18172;SDS011;9211;48.818;9.312;2023-02-28T12:10:36;14.10;;;8.30;;
18172;SDS011;9211;48.818;9.312;2023-02-28T12:13:13;12.20;;;8.20;;
18172;SDS011;9211;48.818;9.312;2023-02-28T12:16:11;12.77;;;8.00;;
18172;SDS011;9211;48.818;9.312;2023-02-28T12:19:09;11.88;;;7.65;;
18172;SDS011;9211;48.818;9.312;2023-02-28T12:25:35;14.68;;;8.82;;
18172;SDS011;9211;48.818;9.312;2023-02-28T12:28:23;12.30;;;8.32;;
18172;SDS011;9211;48.818;9.312;2023-02-28T12:31:15;12.73;;;8.30;;
18172;SDS011;9211;48.818;9.312;2023-02-28T12:33:56;12.30;;;8.18;;
18172;SDS011;9211;48.818;9.312;2023-02-28T12:36:32;12.53;;;8.33;;
18172;SDS011;9211;48.818;9.312;2023-02-28T12:39:20;14.35;;;8.63;;
18172;SDS011;9211;48.818;9.312;2023-02-28T12:41:58;12.85;;;8.68;;
18172;SDS011;9211;48.818;9.312;2023-02-28T12:44:43;13.53;;;8.50;;
18172;SDS011;9211;48.818;9.312;2023-02-28T12:47:19;13.02;;;8.00;;
18172;SDS011;9211;48.818;9.312;2023-02-28T12:49:48;12.32;;;8.15;;
18172;SDS011;9211;48.818;9.312;2023-02-28T12:52:31;13.55;;;8.18;;
18172;SDS011;9211;48.818;9.312;2023-02-28T12:55:13;12.55;;;8.00;;
18172;SDS011;9211;48.818;9.312;2023-02-28T12:58:05;12.60;;;8.30;;
18172;SDS011;9211;48.818;9.312;2023-02-28T13:01:04;12.38;;;8.00;;
18172;SDS011;9211;48.818;9.312;2023-02-28T13:03:59;14.80;;;8.15;;
18172;SDS011;9211;48.818;9.312;2023-02-28T13:07:18;13.13;;;8.27;;
18172;SDS011;9211;48.818;9.312;2023-02-28T13:10:16;14.80;;;8.20;;
18172;SDS011;9211;48.818;9.312;2023-02-28T13:12:47;11.93;;;7.90;;
18172;SDS011;9211;48.818;9.312;2023-02-28T13:15:50;12.63;;;8.20;;
18172;SDS011;9211;48.818;9.312;2023-02-28T13:18:31;14.32;;;8.40;;
18172;SDS011;9211;48.818;9.312;2023-02-28T13:21:24;14.10;;;8.43;;
18172;SDS011;9211;48.818;9.312;2023-02-28T13:24:27;18.23;;;9.93;;
18172;SDS011;9211;48.818;9.312;2023-02-28T13:27:38;11.93;;;7.82;;
18172;SDS011;9211;48.818;9.312;2023-02-28T13:36:31;14.00;;;8.65;;
18172;SDS011;9211;48.818;9.312;2023-02-28T13:38:59;12.70;;;8.10;;
18172;SDS011;9211;48.818;9.312;2023-02-28T13:41:45;12.82;;;7.95;;
18172;SDS011;9211;48.818;9.312;2023-02-28T13:44:15;11.82;;;7.60;;
18172;SDS011;9211;48.818;9.312;2023-02-28T13:52:47;11.65;;;7.70;;
18172;SDS011;9211;48.818;9.312;2023-02-28T13:55:27;10.48;;;7.15;;
18172;SDS011;9211;48.818;9.312;2023-02-28T13:58:16;13.70;;;7.90;;
18172;SDS011;9211;48.818;9.312;2023-02-28T14:04:11;12.10;;;7.35;;
18172;SDS011;9211;48.818;9.312;2023-02-28T14:06:54;10.80;;;7.32;;
18172;SDS011;9211;48.818;9.312;2023-02-28T14:09:23;11.10;;;7.28;;
18172;SDS011;9211;48.818;9.312;2023-02-28T14:11:53;11.48;;;7.15;;
18172;SDS011;9211;48.818;9.312;2023-02-28T14:17:23;10.70;;;7.03;;
18172;SDS011;9211;48.818;9.312;2023-02-28T14:19:51;10.43;;;7.10;;
18172;SDS011;9211;48.818;9.312;2023-02-28T14:22:21;10.48;;;6.90;;
18172;SDS011;9211;48.818;9.312;2023-02-28T14:25:16;11.00;;;7.03;;
18172;SDS011;9211;48.818;9.312;2023-02-28T14:27:50;11.45;;;7.00;;
18172;SDS011;9211;48.818;9.312;2023-02-28T14:30:36;10.85;;;6.88;;
18172;SDS011;9211;48.818;9.312;2023-02-28T14:33:16;12.43;;;7.70;;
18172;SDS011;9211;48.818;9.312;2023-02-28T14:35:58;12.07;;;7.90;;
18172;SDS011;9211;48.818;9.312;2023-02-28T14:38:31;12.20;;;7.45;;
18172;SDS011;9211;48.818;9.312;2023-02-28T14:41:03;12.85;;;7.53;;
18172;SDS011;9211;48.818;9.312;2023-02-28T14:43:32;11.53;;;7.83;;
18172;SDS011;9211;48.818;9.312;2023-02-28T14:46:00;11.52;;;7.25;;
18172;SDS011;9211;48.818;9.312;2023-02-28T14:48:31;10.80;;;7.00;;
18172;SDS011;9211;48.818;9.312;2023-02-28T14:51:00;11.85;;;7.50;;
18172;SDS011;9211;48.818;9.312;2023-02-28T14:53:28;12.65;;;7.70;;
18172;SDS011;9211;48.818;9.312;2023-02-28T14:56:01;11.88;;;7.65;;
18172;SDS011;9211;48.818;9.312;2023-02-28T14:58:29;11.95;;;7.78;;
18172;SDS011;9211;48.818;9.312;2023-02-28T15:00:57;12.02;;;7.80;;
18172;SDS011;9211;48.818;9.312;2023-02-28T15:03:29;13.63;;;8.00;;
18172;SDS011;9211;48.818;9.312;2023-02-28T15:05:59;11.90;;;7.93;;
18172;SDS011;9211;48.818;9.312;2023-02-28T15:08:28;11.70;;;8.25;;
18172;SDS011;9211;48.818;9.312;2023-02-28T15:11:00;11.52;;;7.80;;
18172;SDS011;9211;48.818;9.312;2023-02-28T15:13:34;12.63;;;7.90;;
18172;SDS011;9211;48.818;9.312;2023-02-28T15:16:06;11.87;;;8.03;;
18172;SDS011;9211;48.818;9.312;2023-02-28T15:18:40;13.25;;;8.20;;
18172;SDS011;9211;48.818;9.312;2023-02-28T15:21:12;11.90;;;7.78;;
18172;SDS011;9211;48.818;9.312;2023-02-28T15:23:41;12.60;;;8.10;;
18172;SDS011;9211;48.818;9.312;2023-02-28T15:26:13;11.45;;;8.10;;
18172;SDS011;9211;48.818;9.312;2023-02-28T15:28:42;11.63;;;8.15;;
18172;SDS011;9211;48.818;9.312;2023-02-28T15:31:18;15.10;;;7.80;;
18172;SDS011;9211;48.818;9.312;2023-02-28T15:33:54;14.20;;;8.35;;
18172;SDS011;9211;48.818;9.312;2023-02-28T15:36:24;12.82;;;8.20;;
18172;SDS011;9211;48.818;9.312;2023-02-28T15:38:53;12.35;;;8.43;;
18172;SDS011;9211;48.818;9.312;2023-02-28T15:41:22;13.52;;;8.60;;
18172;SDS011;9211;48.818;9.312;2023-02-28T15:46:58;14.43;;;8.43;;
18172;SDS011;9211;48.818;9.312;2023-02-28T15:49:29;12.15;;;8.10;;
18172;SDS011;9211;48.818;9.312;2023-02-28T15:52:01;12.68;;;8.38;;
18172;SDS011;9211;48.818;9.312;2023-02-28T15:54:28;13.35;;;8.75;;
18172;SDS011;9211;48.818;9.312;2023-02-28T15:57:00;14.02;;;9.07;;
18172;SDS011;9211;48.818;9.312;2023-02-28T15:59:33;12.57;;;8.20;;
18172;SDS011;9211;48.818;9.312;2023-02-28T16:02:13;12.80;;;8.10;;
18172;SDS011;9211;48.818;9.312;2023-02-28T16:04:57;12.43;;;8.48;;
18172;SDS011;9211;48.818;9.312;2023-02-28T16:07:26;16.05;;;8.82;;
18172;SDS011;9211;48.818;9.312;2023-02-28T16:09:54;12.97;;;8.30;;
18172;SDS011;9211;48.818;9.312;2023-02-28T16:12:23;12.45;;;8.55;;
18172;SDS011;9211;48.818;9.312;2023-02-28T16:14:53;13.18;;;8.40;;
18172;SDS011;9211;48.818;9.312;2023-02-28T16:17:22;12.52;;;8.55;;
18172;SDS011;9211;48.818;9.312;2023-02-28T16:19:51;13.88;;;8.52;;